sensor_id;sensor_type;location;lat;lon;timestamp;pressure;altitude;pressure_sealevel;temperature;humidity
21877;BME280;11103;43.788;23.710;2023-01-25T00:00:44;146980.81;;;2.42;100.00
21877;BME280;11103;43.788;23.710;2023-01-25T00:03:10;146963.00;;;2.34;100.00
21877;BME280;11103;43.788;23.710;2023-01-25T00:05:35;146978.28;;;2.40;100.00
21877;BME280;11103;43.788;23.710;2023-01-25T00:08:01;146989.69;;;2.45;100.00
21877;BME280;11103;43.788;23.710;2023-01-25T00:10:26;146980.81;;;2.42;100.00
21877;BME280;11103;43.788;23.710;2023-01-25T00:12:51;146996.03;;;2.48;100.00
21877;BME280;11103;43.788;23.710;2023-01-25T00:15:17;146999.88;;;2.49;100.00
21877;BME280;11103;43.788;23.710;2023-01-25T00:17:42;146984.63;;;2.43;100.00
21877;BME280;11103;43.788;23.710;2023-01-25T00:20:08;146970.63;;;2.37;100.00
21877;BME280;11103;43.788;23.710;2023-01-25T00:22:34;146964.28;;;2.35;100.00
21877;BME280;11103;43.788;23.710;2023-01-25T00:24:59;146968.09;;;2.36;100.00
21877;BME280;11103;43.788;23.710;2023-01-25T00:27:25;146984.63;;;2.43;100.00
21877;BME280;11103;43.788;23.710;2023-01-25T00:29:50;146987.19;;;2.44;100.00
21877;BME280;11103;43.788;23.710;2023-01-25T00:34:48;146983.34;;;2.42;100.00
21877;BME280;11103;43.788;23.710;2023-01-25T00:39:48;146970.63;;;2.37;100.00
21877;BME280;11103;43.788;23.710;2023-01-25T00:42:15;146963.00;;;2.34;100.00
21877;BME280;11103;43.788;23.710;2023-01-25T00:44:41;146931.28;;;2.22;100.00
21877;BME280;11103;43.788;23.710;2023-01-25T00:47:07;146914.75;;;2.15;100.00
21877;BME280;11103;43.788;23.710;2023-01-25T00:49:33;146917.31;;;2.16;100.00
21877;BME280;11103;43.788;23.710;2023-01-25T00:51:59;146919.88;;;2.17;100.00
21877;BME280;11103;43.788;23.710;2023-01-25T00:54:24;146902.06;;;2.10;100.00
21877;BME280;11103;43.788;23.710;2023-01-25T00:56:50;146904.63;;;2.11;100.00
21877;BME280;11103;43.788;23.710;2023-01-25T00:59:24;146914.75;;;2.15;100.00
21877;BME280;11103;43.788;23.710;2023-01-25T01:01:50;146910.97;;;2.14;100.00
21877;BME280;11103;43.788;23.710;2023-01-25T01:04:16;146923.66;;;2.19;100.00
21877;BME280;11103;43.788;23.710;2023-01-25T01:06:42;146922.38;;;2.18;100.00
21877;BME280;11103;43.788;23.710;2023-01-25T01:09:12;146916.03;;;2.16;100.00
21877;BME280;11103;43.788;23.710;2023-01-25T01:11:38;146910.97;;;2.14;100.00
21877;BME280;11103;43.788;23.710;2023-01-25T01:14:03;146907.13;;;2.12;100.00
21877;BME280;11103;43.788;23.710;2023-01-25T01:16:28;146905.91;;;2.12;100.00
21877;BME280;11103;43.788;23.710;2023-01-25T01:18:54;146907.13;;;2.12;100.00
21877;BME280;11103;43.788;23.710;2023-01-25T01:21:20;146924.94;;;2.19;100.00
21877;BME280;11103;43.788;23.710;2023-01-25T01:23:45;146932.56;;;2.22;100.00
21877;BME280;11103;43.788;23.710;2023-01-25T01:26:13;146917.31;;;2.16;100.00
21877;BME280;11103;43.788;23.710;2023-01-25T01:28:39;146921.09;;;2.18;100.00
21877;BME280;11103;43.788;23.710;2023-01-25T01:31:20;146928.72;;;2.21;100.00
21877;BME280;11103;43.788;23.710;2023-01-25T01:33:54;146928.72;;;2.21;100.00
21877;BME280;11103;43.788;23.710;2023-01-25T01:36:21;146941.41;;;2.26;100.00
21877;BME280;11103;43.788;23.710;2023-01-25T01:38:47;146933.78;;;2.23;100.00
21877;BME280;11103;43.788;23.710;2023-01-25T01:41:14;146930.00;;;2.21;100.00
21877;BME280;11103;43.788;23.710;2023-01-25T01:43:40;146935.06;;;2.23;100.00
21877;BME280;11103;43.788;23.710;2023-01-25T01:46:23;146936.34;;;2.24;100.00
21877;BME280;11103;43.788;23.710;2023-01-25T01:53:59;146936.34;;;2.24;100.00
21877;BME280;11103;43.788;23.710;2023-01-25T01:56:31;146921.09;;;2.18;100.00
21877;BME280;11103;43.788;23.710;2023-01-25T01:58:59;146879.19;;;2.01;100.00
21877;BME280;11103;43.788;23.710;2023-01-25T02:01:25;146905.91;;;2.12;100.00
21877;BME280;11103;43.788;23.710;2023-01-25T02:03:51;146904.63;;;2.11;100.00
21877;BME280;11103;43.788;23.710;2023-01-25T02:06:26;146914.75;;;2.15;100.00
21877;BME280;11103;43.788;23.710;2023-01-25T02:08:53;146914.75;;;2.15;100.00
21877;BME280;11103;43.788;23.710;2023-01-25T02:11:20;146900.78;;;2.10;100.00
21877;BME280;11103;43.788;23.710;2023-01-25T02:13:47;146861.44;;;1.94;100.00
21877;BME280;11103;43.788;23.710;2023-01-25T02:16:15;146875.41;;;2.00;100.00
21877;BME280;11103;43.788;23.710;2023-01-25T02:18:41;146876.69;;;2.00;100.00
21877;BME280;11103;43.788;23.710;2023-01-25T02:21:07;146877.94;;;2.01;100.00
21877;BME280;11103;43.788;23.710;2023-01-25T02:26:16;146913.47;;;2.15;100.00
21877;BME280;11103;43.788;23.710;2023-01-25T02:31:11;146899.50;;;2.09;100.00
21877;BME280;11103;43.788;23.710;2023-01-25T02:33:36;146913.47;;;2.15;100.00
21877;BME280;11103;43.788;23.710;2023-01-25T02:38:55;146917.31;;;2.16;100.00
21877;BME280;11103;43.788;23.710;2023-01-25T02:41:33;146909.69;;;2.13;100.00
21877;BME280;11103;43.788;23.710;2023-01-25T02:44:00;146899.50;;;2.09;100.00
21877;BME280;11103;43.788;23.710;2023-01-25T02:46:29;146907.13;;;2.12;100.00
21877;BME280;11103;43.788;23.710;2023-01-25T02:48:56;146881.75;;;2.02;100.00
21877;BME280;11103;43.788;23.710;2023-01-25T02:51:24;146890.63;;;2.06;100.00
21877;BME280;11103;43.788;23.710;2023-01-25T02:53:50;146897.00;;;2.08;100.00
21877;BME280;11103;43.788;23.710;2023-01-25T02:56:16;146898.25;;;2.09;100.00
21877;BME280;11103;43.788;23.710;2023-01-25T02:58:42;146874.13;;;1.99;100.00
21877;BME280;11103;43.788;23.710;2023-01-25T03:01:08;146881.75;;;2.02;100.00
21877;BME280;11103;43.788;23.710;2023-01-25T03:03:34;146881.75;;;2.02;100.00
21877;BME280;11103;43.788;23.710;2023-01-25T03:05:59;146872.84;;;1.99;100.00
21877;BME280;11103;43.788;23.710;2023-01-25T03:08:24;146862.69;;;1.95;100.00
21877;BME280;11103;43.788;23.710;2023-01-25T03:10:50;146863.97;;;1.95;100.00
21877;BME280;11103;43.788;23.710;2023-01-25T03:13:15;146851.28;;;1.90;100.00
21877;BME280;11103;43.788;23.710;2023-01-25T03:15:41;146830.97;;;1.82;100.00
21877;BME280;11103;43.788;23.710;2023-01-25T03:18:06;146846.19;;;1.88;100.00
21877;BME280;11103;43.788;23.710;2023-01-25T03:20:32;146839.84;;;1.86;100.00
21877;BME280;11103;43.788;23.710;2023-01-25T03:22:57;146830.97;;;1.82;100.00
21877;BME280;11103;43.788;23.710;2023-01-25T03:25:22;146841.13;;;1.86;100.00
21877;BME280;11103;43.788;23.710;2023-01-25T03:27:48;146847.44;;;1.89;100.00
21877;BME280;11103;43.788;23.710;2023-01-25T03:30:13;146836.03;;;1.84;100.00
21877;BME280;11103;43.788;23.710;2023-01-25T03:32:39;146857.63;;;1.93;100.00
21877;BME280;11103;43.788;23.710;2023-01-25T03:35:04;146853.81;;;1.91;100.00
21877;BME280;11103;43.788;23.710;2023-01-25T03:37:30;146853.81;;;1.91;100.00
21877;BME280;11103;43.788;23.710;2023-01-25T03:39:56;146856.34;;;1.92;100.00
21877;BME280;11103;43.788;23.710;2023-01-25T03:42:22;146828.41;;;1.81;100.00
21877;BME280;11103;43.788;23.710;2023-01-25T03:44:48;146874.13;;;1.99;100.00
21877;BME280;11103;43.788;23.710;2023-01-25T03:47:13;146866.50;;;1.96;100.00
21877;BME280;11103;43.788;23.710;2023-01-25T03:49:40;146867.78;;;1.97;100.00
21877;BME280;11103;43.788;23.710;2023-01-25T03:52:06;146848.75;;;1.89;100.00
21877;BME280;11103;43.788;23.710;2023-01-25T03:54:32;146853.81;;;1.91;100.00
21877;BME280;11103;43.788;23.710;2023-01-25T03:56:57;146871.59;;;1.98;100.00
21877;BME280;11103;43.788;23.710;2023-01-25T03:59:23;146856.34;;;1.92;100.00
21877;BME280;11103;43.788;23.710;2023-01-25T04:01:48;146843.66;;;1.87;100.00
21877;BME280;11103;43.788;23.710;2023-01-25T04:04:14;146850.00;;;1.90;100.00
21877;BME280;11103;43.788;23.710;2023-01-25T04:06:39;146861.44;;;1.94;100.00
21877;BME280;11103;43.788;23.710;2023-01-25T04:09:05;146853.81;;;1.91;100.00
21877;BME280;11103;43.788;23.710;2023-01-25T04:11:31;146848.75;;;1.89;100.00
21877;BME280;11103;43.788;23.710;2023-01-25T04:13:57;146850.00;;;1.90;100.00
21877;BME280;11103;43.788;23.710;2023-01-25T04:16:22;146828.41;;;1.81;100.00
21877;BME280;11103;43.788;23.710;2023-01-25T04:18:47;146846.19;;;1.88;100.00
21877;BME280;11103;43.788;23.710;2023-01-25T04:21:13;146828.41;;;1.81;100.00
21877;BME280;11103;43.788;23.710;2023-01-25T04:23:38;146828.41;;;1.81;100.00
21877;BME280;11103;43.788;23.710;2023-01-25T04:26:05;146853.81;;;1.91;100.00
21877;BME280;11103;43.788;23.710;2023-01-25T04:28:33;146879.19;;;2.01;100.00
21877;BME280;11103;43.788;23.710;2023-01-25T04:30:58;146891.91;;;2.06;100.00
21877;BME280;11103;43.788;23.710;2023-01-25T04:33:25;146890.63;;;2.06;100.00
21877;BME280;11103;43.788;23.710;2023-01-25T04:35:51;146871.59;;;1.98;100.00
21877;BME280;11103;43.788;23.710;2023-01-25T04:38:16;146891.91;;;2.06;100.00
21877;BME280;11103;43.788;23.710;2023-01-25T04:40:42;146902.06;;;2.10;100.00
21877;BME280;11103;43.788;23.710;2023-01-25T04:43:08;146856.34;;;1.92;100.00
21877;BME280;11103;43.788;23.710;2023-01-25T04:45:35;146853.81;;;1.91;100.00
21877;BME280;11103;43.788;23.710;2023-01-25T04:48:03;146853.81;;;1.91;100.00
21877;BME280;11103;43.788;23.710;2023-01-25T04:50:28;146863.97;;;1.95;100.00
21877;BME280;11103;43.788;23.710;2023-01-25T04:52:54;146884.31;;;2.03;100.00
21877;BME280;11103;43.788;23.710;2023-01-25T04:55:20;146894.44;;;2.07;100.00
21877;BME280;11103;43.788;23.710;2023-01-25T04:57:48;146888.09;;;2.05;100.00
21877;BME280;11103;43.788;23.710;2023-01-25T05:00:15;146858.88;;;1.93;100.00
21877;BME280;11103;43.788;23.710;2023-01-25T05:02:41;146875.41;;;2.00;100.00
21877;BME280;11103;43.788;23.710;2023-01-25T05:05:07;146890.63;;;2.06;100.00
21877;BME280;11103;43.788;23.710;2023-01-25T05:07:33;146872.84;;;1.99;100.00
21877;BME280;11103;43.788;23.710;2023-01-25T05:09:58;146863.97;;;1.95;100.00
21877;BME280;11103;43.788;23.710;2023-01-25T05:12:24;146863.97;;;1.95;100.00
21877;BME280;11103;43.788;23.710;2023-01-25T05:14:49;146857.63;;;1.93;100.00
21877;BME280;11103;43.788;23.710;2023-01-25T05:17:14;146874.13;;;1.99;100.00
21877;BME280;11103;43.788;23.710;2023-01-25T05:19:40;146874.13;;;1.99;100.00
21877;BME280;11103;43.788;23.710;2023-01-25T05:22:06;146888.09;;;2.05;100.00
21877;BME280;11103;43.788;23.710;2023-01-25T05:24:35;146876.69;;;2.00;100.00
21877;BME280;11103;43.788;23.710;2023-01-25T05:27:02;146869.06;;;1.97;100.00
21877;BME280;11103;43.788;23.710;2023-01-25T05:29:41;146860.16;;;1.94;100.00
21877;BME280;11103;43.788;23.710;2023-01-25T05:34:36;146867.78;;;1.97;100.00
21877;BME280;11103;43.788;23.710;2023-01-25T05:37:03;146860.16;;;1.94;100.00
21877;BME280;11103;43.788;23.710;2023-01-25T05:39:29;146842.38;;;1.87;100.00
21877;BME280;11103;43.788;23.710;2023-01-25T05:41:55;146841.13;;;1.86;100.00
21877;BME280;11103;43.788;23.710;2023-01-25T05:44:20;146867.78;;;1.97;100.00
21877;BME280;11103;43.788;23.710;2023-01-25T05:46:46;146879.19;;;2.01;100.00
21877;BME280;11103;43.788;23.710;2023-01-25T05:49:12;146861.44;;;1.94;100.00
21877;BME280;11103;43.788;23.710;2023-01-25T05:51:37;146858.88;;;1.93;100.00
21877;BME280;11103;43.788;23.710;2023-01-25T05:54:04;146862.69;;;1.95;100.00
21877;BME280;11103;43.788;23.710;2023-01-25T05:56:31;146872.84;;;1.99;100.00
21877;BME280;11103;43.788;23.710;2023-01-25T05:58:58;146856.34;;;1.92;100.00
21877;BME280;11103;43.788;23.710;2023-01-25T06:01:24;146851.28;;;1.90;100.00
21877;BME280;11103;43.788;23.710;2023-01-25T06:03:50;146841.13;;;1.86;100.00
21877;BME280;11103;43.788;23.710;2023-01-25T06:06:15;146856.34;;;1.92;100.00
21877;BME280;11103;43.788;23.710;2023-01-25T06:08:41;146846.19;;;1.88;100.00
21877;BME280;11103;43.788;23.710;2023-01-25T06:11:17;146842.38;;;1.87;100.00
21877;BME280;11103;43.788;23.710;2023-01-25T06:13:43;146839.84;;;1.86;100.00
21877;BME280;11103;43.788;23.710;2023-01-25T06:16:09;146841.13;;;1.86;100.00
21877;BME280;11103;43.788;23.710;2023-01-25T06:18:35;146825.88;;;1.80;100.00
21877;BME280;11103;43.788;23.710;2023-01-25T06:21:02;146862.69;;;1.95;100.00
21877;BME280;11103;43.788;23.710;2023-01-25T06:23:28;146870.31;;;1.98;100.00
21877;BME280;11103;43.788;23.710;2023-01-25T06:25:58;146875.41;;;2.00;100.00
21877;BME280;11103;43.788;23.710;2023-01-25T06:28:24;146870.31;;;1.98;100.00
21877;BME280;11103;43.788;23.710;2023-01-25T06:30:49;146861.44;;;1.94;100.00
21877;BME280;11103;43.788;23.710;2023-01-25T06:33:14;146867.78;;;1.97;100.00
21877;BME280;11103;43.788;23.710;2023-01-25T06:35:40;146846.19;;;1.88;100.00
21877;BME280;11103;43.788;23.710;2023-01-25T06:38:06;146853.81;;;1.91;100.00
21877;BME280;11103;43.788;23.710;2023-01-25T06:40:32;146866.50;;;1.96;100.00
21877;BME280;11103;43.788;23.710;2023-01-25T06:43:08;146858.88;;;1.93;100.00
21877;BME280;11103;43.788;23.710;2023-01-25T06:45:33;146843.66;;;1.87;100.00
21877;BME280;11103;43.788;23.710;2023-01-25T06:47:59;146867.78;;;1.97;100.00
21877;BME280;11103;43.788;23.710;2023-01-25T06:50:24;146875.41;;;2.00;100.00
21877;BME280;11103;43.788;23.710;2023-01-25T06:52:53;146865.25;;;1.96;100.00
21877;BME280;11103;43.788;23.710;2023-01-25T06:55:19;146883.00;;;2.03;100.00
21877;BME280;11103;43.788;23.710;2023-01-25T06:57:45;146883.00;;;2.03;100.00
21877;BME280;11103;43.788;23.710;2023-01-25T07:00:11;146886.81;;;2.04;100.00
21877;BME280;11103;43.788;23.710;2023-01-25T07:02:36;146907.13;;;2.12;100.00
21877;BME280;11103;43.788;23.710;2023-01-25T07:05:02;146923.66;;;2.19;100.00
21877;BME280;11103;43.788;23.710;2023-01-25T07:07:27;146889.38;;;2.05;100.00
21877;BME280;11103;43.788;23.710;2023-01-25T07:09:52;146891.91;;;2.06;100.00
21877;BME280;11103;43.788;23.710;2023-01-25T07:12:18;146891.91;;;2.06;100.00
21877;BME280;11103;43.788;23.710;2023-01-25T07:14:44;146905.91;;;2.12;100.00
21877;BME280;11103;43.788;23.710;2023-01-25T07:17:12;146924.94;;;2.19;100.00
21877;BME280;11103;43.788;23.710;2023-01-25T07:19:37;146921.09;;;2.18;100.00
21877;BME280;11103;43.788;23.710;2023-01-25T07:22:03;146898.25;;;2.09;100.00
21877;BME280;11103;43.788;23.710;2023-01-25T07:24:28;146875.41;;;2.00;100.00
21877;BME280;11103;43.788;23.710;2023-01-25T07:26:54;146894.44;;;2.07;100.00
21877;BME280;11103;43.788;23.710;2023-01-25T07:29:19;146897.00;;;2.08;100.00
21877;BME280;11103;43.788;23.710;2023-01-25T07:31:44;146907.13;;;2.12;100.00
21877;BME280;11103;43.788;23.710;2023-01-25T07:34:11;146908.41;;;2.13;100.00
21877;BME280;11103;43.788;23.710;2023-01-25T07:36:38;146922.38;;;2.18;100.00
21877;BME280;11103;43.788;23.710;2023-01-25T07:39:04;146932.56;;;2.22;100.00
21877;BME280;11103;43.788;23.710;2023-01-25T07:41:30;146935.06;;;2.23;100.00
21877;BME280;11103;43.788;23.710;2023-01-25T07:43:56;146923.66;;;2.19;100.00
21877;BME280;11103;43.788;23.710;2023-01-25T07:46:22;146928.72;;;2.21;100.00
21877;BME280;11103;43.788;23.710;2023-01-25T07:48:52;146938.91;;;2.25;100.00
21877;BME280;11103;43.788;23.710;2023-01-25T07:51:20;146940.19;;;2.25;100.00
21877;BME280;11103;43.788;23.710;2023-01-25T07:53:56;146932.56;;;2.22;100.00
21877;BME280;11103;43.788;23.710;2023-01-25T07:56:31;146964.28;;;2.35;100.00
21877;BME280;11103;43.788;23.710;2023-01-25T07:58:58;146987.19;;;2.44;100.00
21877;BME280;11103;43.788;23.710;2023-01-25T08:01:26;146970.63;;;2.37;100.00
21877;BME280;11103;43.788;23.710;2023-01-25T08:03:53;146955.38;;;2.31;100.00
21877;BME280;11103;43.788;23.710;2023-01-25T08:06:31;146978.28;;;2.40;100.00
21877;BME280;11103;43.788;23.710;2023-01-25T08:09:10;146968.09;;;2.36;100.00
21877;BME280;11103;43.788;23.710;2023-01-25T08:11:37;146964.28;;;2.35;100.00
21877;BME280;11103;43.788;23.710;2023-01-25T08:14:02;146947.75;;;2.28;100.00
21877;BME280;11103;43.788;23.710;2023-01-25T08:16:29;146957.94;;;2.32;100.00
21877;BME280;11103;43.788;23.710;2023-01-25T08:18:57;146968.09;;;2.36;100.00
21877;BME280;11103;43.788;23.710;2023-01-25T08:21:24;146970.63;;;2.37;100.00
21877;BME280;11103;43.788;23.710;2023-01-25T08:23:53;146970.63;;;2.37;100.00
21877;BME280;11103;43.788;23.710;2023-01-25T08:26:18;146965.56;;;2.35;100.00
21877;BME280;11103;43.788;23.710;2023-01-25T08:28:45;146968.09;;;2.36;100.00
21877;BME280;11103;43.788;23.710;2023-01-25T08:33:37;146994.81;;;2.47;100.00
21877;BME280;11103;43.788;23.710;2023-01-25T08:36:03;146996.03;;;2.48;100.00
21877;BME280;11103;43.788;23.710;2023-01-25T08:38:30;147003.66;;;2.51;100.00
21877;BME280;11103;43.788;23.710;2023-01-25T08:41:03;147011.28;;;2.54;100.00
21877;BME280;11103;43.788;23.710;2023-01-25T08:43:29;147011.28;;;2.54;100.00
21877;BME280;11103;43.788;23.710;2023-01-25T08:45:55;147026.56;;;2.60;100.00
21877;BME280;11103;43.788;23.710;2023-01-25T08:48:21;146990.97;;;2.46;100.00
21877;BME280;11103;43.788;23.710;2023-01-25T08:50:47;147007.50;;;2.52;100.00
21877;BME280;11103;43.788;23.710;2023-01-25T08:53:12;147001.16;;;2.50;100.00
21877;BME280;11103;43.788;23.710;2023-01-25T08:55:38;147021.47;;;2.58;100.00
21877;BME280;11103;43.788;23.710;2023-01-25T08:58:05;147015.13;;;2.55;100.00
21877;BME280;11103;43.788;23.710;2023-01-25T09:00:36;147021.47;;;2.58;100.00
21877;BME280;11103;43.788;23.710;2023-01-25T09:03:02;147034.19;;;2.63;100.00
21877;BME280;11103;43.788;23.710;2023-01-25T09:05:27;147031.63;;;2.62;100.00
21877;BME280;11103;43.788;23.710;2023-01-25T09:07:52;147040.53;;;2.65;100.00
21877;BME280;11103;43.788;23.710;2023-01-25T09:10:18;147036.69;;;2.64;100.00
21877;BME280;11103;43.788;23.710;2023-01-25T09:12:43;147025.25;;;2.59;100.00
21877;BME280;11103;43.788;23.710;2023-01-25T09:15:09;147015.13;;;2.55;100.00
21877;BME280;11103;43.788;23.710;2023-01-25T09:17:34;146993.53;;;2.47;100.00
21877;BME280;11103;43.788;23.710;2023-01-25T09:20:05;147008.78;;;2.53;100.00
21877;BME280;11103;43.788;23.710;2023-01-25T09:22:30;146998.59;;;2.49;100.00
21877;BME280;11103;43.788;23.710;2023-01-25T09:24:56;147020.19;;;2.57;100.00
21877;BME280;11103;43.788;23.710;2023-01-25T09:27:21;147026.56;;;2.60;100.00
21877;BME280;11103;43.788;23.710;2023-01-25T09:29:46;147049.44;;;2.69;100.00
21877;BME280;11103;43.788;23.710;2023-01-25T09:32:12;146990.97;;;2.46;100.00
21877;BME280;11103;43.788;23.710;2023-01-25T09:34:37;147018.91;;;2.57;100.00
21877;BME280;11103;43.788;23.710;2023-01-25T09:37:03;147008.78;;;2.53;100.00
21877;BME280;11103;43.788;23.710;2023-01-25T09:39:28;147031.63;;;2.62;100.00
21877;BME280;11103;43.788;23.710;2023-01-25T09:52:58;147049.44;;;2.69;100.00
21877;BME280;11103;43.788;23.710;2023-01-25T09:55:32;147039.25;;;2.65;100.00
21877;BME280;11103;43.788;23.710;2023-01-25T09:58:00;147011.28;;;2.54;100.00
21877;BME280;11103;43.788;23.710;2023-01-25T10:00:27;146996.03;;;2.48;100.00
21877;BME280;11103;43.788;23.710;2023-01-25T10:03:04;146985.91;;;2.44;100.00
21877;BME280;11103;43.788;23.710;2023-01-25T10:05:45;146985.91;;;2.44;100.00
21877;BME280;11103;43.788;23.710;2023-01-25T10:08:16;147011.28;;;2.54;100.00
21877;BME280;11103;43.788;23.710;2023-01-25T10:10:45;147011.28;;;2.54;100.00
21877;BME280;11103;43.788;23.710;2023-01-25T10:13:15;147020.19;;;2.57;100.00
21877;BME280;11103;43.788;23.710;2023-01-25T10:16:03;147011.28;;;2.54;100.00
21877;BME280;11103;43.788;23.710;2023-01-25T10:18:43;147008.78;;;2.53;100.00
21877;BME280;11103;43.788;23.710;2023-01-25T10:21:21;147020.19;;;2.57;100.00
21877;BME280;11103;43.788;23.710;2023-01-25T10:26:36;147026.56;;;2.60;100.00
21877;BME280;11103;43.788;23.710;2023-01-25T10:34:59;147029.09;;;2.61;100.00
21877;BME280;11103;43.788;23.710;2023-01-25T10:37:30;147030.34;;;2.61;100.00
21877;BME280;11103;43.788;23.710;2023-01-25T10:40:12;146993.53;;;2.47;100.00
21877;BME280;11103;43.788;23.710;2023-01-25T10:42:44;146993.53;;;2.47;100.00
21877;BME280;11103;43.788;23.710;2023-01-25T10:45:13;147001.16;;;2.50;100.00
21877;BME280;11103;43.788;23.710;2023-01-25T10:47:41;147001.16;;;2.50;100.00
21877;BME280;11103;43.788;23.710;2023-01-25T10:50:08;147016.38;;;2.56;100.00
21877;BME280;11103;43.788;23.710;2023-01-25T10:52:34;147017.63;;;2.56;100.00
21877;BME280;11103;43.788;23.710;2023-01-25T10:57:44;147036.69;;;2.64;100.00
21877;BME280;11103;43.788;23.710;2023-01-25T11:02:46;147025.25;;;2.59;100.00
21877;BME280;11103;43.788;23.710;2023-01-25T11:07:43;147026.56;;;2.60;100.00
21877;BME280;11103;43.788;23.710;2023-01-25T11:10:33;147026.56;;;2.60;100.00
21877;BME280;11103;43.788;23.710;2023-01-25T11:15:43;147029.09;;;2.61;100.00
21877;BME280;11103;43.788;23.710;2023-01-25T11:18:30;147043.09;;;2.66;100.00
21877;BME280;11103;43.788;23.710;2023-01-25T11:21:14;147043.09;;;2.66;100.00
21877;BME280;11103;43.788;23.710;2023-01-25T11:23:43;147054.50;;;2.71;100.00
21877;BME280;11103;43.788;23.710;2023-01-25T11:26:22;147062.13;;;2.74;100.00
21877;BME280;11103;43.788;23.710;2023-01-25T11:28:48;147095.16;;;2.87;100.00
21877;BME280;11103;43.788;23.710;2023-01-25T11:31:18;147126.91;;;2.99;100.00
21877;BME280;11103;43.788;23.710;2023-01-25T11:33:44;147143.47;;;3.06;100.00
21877;BME280;11103;43.788;23.710;2023-01-25T11:38:54;147120.56;;;2.97;100.00
21877;BME280;11103;43.788;23.710;2023-01-25T11:41:59;147135.84;;;3.03;100.00
21877;BME280;11103;43.788;23.710;2023-01-25T11:44:38;147116.78;;;2.95;100.00
21877;BME280;11103;43.788;23.710;2023-01-25T11:47:24;147144.75;;;3.07;100.00
21877;BME280;11103;43.788;23.710;2023-01-25T11:50:12;147148.53;;;3.08;100.00
21877;BME280;11103;43.788;23.710;2023-01-25T11:55:43;147181.59;;;3.21;100.00
21877;BME280;11103;43.788;23.710;2023-01-25T12:04:44;147144.75;;;3.07;100.00
21877;BME280;11103;43.788;23.710;2023-01-25T12:07:43;147186.69;;;3.23;100.00
21877;BME280;11103;43.788;23.710;2023-01-25T12:10:18;147205.75;;;3.31;100.00
21877;BME280;11103;43.788;23.710;2023-01-25T12:13:00;147212.13;;;3.33;100.00
21877;BME280;11103;43.788;23.710;2023-01-25T12:15:56;147248.97;;;3.48;100.00
21877;BME280;11103;43.788;23.710;2023-01-25T12:21:34;147214.63;;;3.34;100.00
21877;BME280;11103;43.788;23.710;2023-01-25T12:32:10;147278.22;;;3.59;99.69
21877;BME280;11103;43.788;23.710;2023-01-25T12:34:40;147255.38;;;3.50;99.19
21877;BME280;11103;43.788;23.710;2023-01-25T12:37:15;147235.00;;;3.42;99.49
21877;BME280;11103;43.788;23.710;2023-01-25T12:39:53;147223.53;;;3.38;98.02
21877;BME280;11103;43.788;23.710;2023-01-25T12:42:28;147227.38;;;3.39;95.62
21877;BME280;11103;43.788;23.710;2023-01-25T12:45:04;147200.69;;;3.29;95.85
21877;BME280;11103;43.788;23.710;2023-01-25T12:47:36;147191.78;;;3.25;96.29
21877;BME280;11103;43.788;23.710;2023-01-25T12:50:14;147193.06;;;3.26;94.22
21877;BME280;11103;43.788;23.710;2023-01-25T12:52:48;147181.59;;;3.21;96.83
21877;BME280;11103;43.788;23.710;2023-01-25T12:55:16;147205.75;;;3.31;96.11
21877;BME280;11103;43.788;23.710;2023-01-25T13:00:43;147254.06;;;3.50;96.68
21877;BME280;11103;43.788;23.710;2023-01-25T13:05:54;147232.47;;;3.41;90.95
21877;BME280;11103;43.788;23.710;2023-01-25T13:08:48;147237.53;;;3.43;92.53
21877;BME280;11103;43.788;23.710;2023-01-25T13:11:36;147217.19;;;3.35;92.04
21877;BME280;11103;43.788;23.710;2023-01-25T13:16:50;147236.25;;;3.43;92.10
21877;BME280;11103;43.788;23.710;2023-01-25T13:21:56;147205.75;;;3.31;89.58
21877;BME280;11103;43.788;23.710;2023-01-25T13:24:27;147207.03;;;3.31;89.89
21877;BME280;11103;43.788;23.710;2023-01-25T13:31:55;147240.09;;;3.44;84.87
21877;BME280;11103;43.788;23.710;2023-01-25T13:37:00;147237.53;;;3.43;84.76
21877;BME280;11103;43.788;23.710;2023-01-25T13:44:29;147219.75;;;3.36;84.20
21877;BME280;11103;43.788;23.710;2023-01-25T13:46:56;147229.91;;;3.40;84.94
21877;BME280;11103;43.788;23.710;2023-01-25T13:49:32;147208.28;;;3.32;84.10
21877;BME280;11103;43.788;23.710;2023-01-25T13:51:58;147196.84;;;3.27;84.26
21877;BME280;11103;43.788;23.710;2023-01-25T13:54:25;147189.22;;;3.24;84.70
21877;BME280;11103;43.788;23.710;2023-01-25T13:57:27;147179.06;;;3.20;86.61
21877;BME280;11103;43.788;23.710;2023-01-25T14:00:14;147167.59;;;3.16;86.88
21877;BME280;11103;43.788;23.710;2023-01-25T14:02:42;147156.16;;;3.11;86.99
21877;BME280;11103;43.788;23.710;2023-01-25T14:05:24;147175.22;;;3.19;87.95
21877;BME280;11103;43.788;23.710;2023-01-25T14:07:54;147159.97;;;3.13;86.54
21877;BME280;11103;43.788;23.710;2023-01-25T14:10:23;147163.81;;;3.14;87.79
21877;BME280;11103;43.788;23.710;2023-01-25T14:12:52;147176.50;;;3.19;89.09
21877;BME280;11103;43.788;23.710;2023-01-25T14:15:25;147167.59;;;3.16;90.22
21877;BME280;11103;43.788;23.710;2023-01-25T14:18:14;147157.44;;;3.12;90.51
21877;BME280;11103;43.788;23.710;2023-01-25T14:20:42;147147.25;;;3.08;91.58
21877;BME280;11103;43.788;23.710;2023-01-25T14:23:26;147138.41;;;3.04;91.05
21877;BME280;11103;43.788;23.710;2023-01-25T14:25:52;147139.63;;;3.05;92.45
21877;BME280;11103;43.788;23.710;2023-01-25T14:28:19;147135.84;;;3.03;92.46